createdAt,value
2019-03-24T00:00:11.899Z,31.23
2019-03-24T00:02:40.905Z,29.00
2019-03-24T00:05:09.815Z,30.87
2019-03-24T00:07:38.655Z,28.07
2019-03-24T00:10:09.518Z,30.57
2019-03-24T00:12:38.097Z,28.50
2019-03-24T00:15:08.237Z,27.17
2019-03-24T00:17:37.099Z,28.20
2019-03-24T00:20:10.025Z,28.23
2019-03-24T00:22:38.091Z,26.50
2019-03-24T00:25:08.023Z,27.60
2019-03-24T00:27:36.876Z,27.83
2019-03-24T00:30:10.076Z,27.50
2019-03-24T00:32:38.879Z,26.77
2019-03-24T00:35:08.139Z,28.73
2019-03-24T00:37:36.671Z,27.70
2019-03-24T00:40:09.490Z,28.33
2019-03-24T00:42:38.309Z,27.87
2019-03-24T00:45:09.337Z,29.13
2019-03-24T00:47:38.197Z,29.73
2019-03-24T00:50:07.630Z,31.27
2019-03-24T00:52:36.522Z,29.47
2019-03-24T00:55:07.253Z,31.40
2019-03-24T00:57:37.625Z,30.43
2019-03-24T01:00:11.861Z,28.43
2019-03-24T01:02:40.688Z,28.03
2019-03-24T01:05:09.785Z,27.57
2019-03-24T01:07:38.825Z,27.70
2019-03-24T01:10:09.038Z,26.40
2019-03-24T01:12:38.035Z,27.77
2019-03-24T01:15:07.921Z,27.93
2019-03-24T01:17:38.073Z,28.80
2019-03-24T01:20:08.172Z,30.27
2019-03-24T01:22:37.384Z,28.90
2019-03-24T01:25:07.136Z,28.73
2019-03-24T01:27:36.041Z,30.23
2019-03-24T01:30:08.999Z,29.60
2019-03-24T01:32:37.924Z,31.13
2019-03-24T01:35:07.278Z,29.60
2019-03-24T01:37:36.194Z,28.37
2019-03-24T01:40:07.005Z,30.37
2019-03-24T01:42:35.969Z,28.37
2019-03-24T01:45:10.626Z,28.97
2019-03-24T01:47:39.488Z,28.83
2019-03-24T01:50:08.629Z,31.30
2019-03-24T01:52:37.502Z,31.10
2019-03-24T01:55:06.659Z,28.70
2019-03-24T01:57:35.454Z,31.40
2019-03-24T02:00:08.558Z,29.20
2019-03-24T02:02:37.419Z,31.80
2019-03-24T02:05:07.080Z,29.20
2019-03-24T02:07:36.115Z,27.40
2019-03-24T02:10:09.757Z,29.60
2019-03-24T02:12:38.232Z,29.47
2019-03-24T02:15:08.433Z,27.73
2019-03-24T02:17:37.259Z,28.10
2019-03-24T02:20:07.201Z,28.40
2019-03-24T02:22:36.103Z,29.57
2019-03-24T02:25:06.345Z,31.50
2019-03-24T02:27:35.066Z,30.60
2019-03-24T02:30:04.784Z,33.83
2019-03-24T02:32:33.542Z,33.37
2019-03-24T02:35:02.293Z,34.27
2019-03-24T02:37:31.100Z,34.33
2019-03-24T02:39:59.862Z,34.33
2019-03-24T02:42:28.412Z,37.70
2019-03-24T02:44:57.331Z,34.60
2019-03-24T02:47:26.074Z,35.20
2019-03-24T02:49:54.840Z,34.97
2019-03-24T02:52:23.747Z,35.23
2019-03-24T02:54:52.579Z,35.40
2019-03-24T02:57:21.045Z,35.47
2019-03-24T02:59:49.924Z,33.20
2019-03-24T03:02:18.686Z,34.07
2019-03-24T03:04:47.518Z,34.50
2019-03-24T03:07:16.379Z,35.30
2019-03-24T03:09:45.300Z,30.43
2019-03-24T03:12:14.085Z,32.63
2019-03-24T03:14:42.949Z,31.87
2019-03-24T03:17:11.767Z,31.83
2019-03-24T03:19:40.508Z,30.20
2019-03-24T03:22:09.325Z,30.77
2019-03-24T03:24:38.143Z,29.90
2019-03-24T03:27:06.972Z,30.57
2019-03-24T03:29:35.822Z,31.97
2019-03-24T03:32:04.593Z,32.60
2019-03-24T03:34:33.430Z,33.83
2019-03-24T03:37:02.316Z,31.83
2019-03-24T03:39:31.158Z,33.27
2019-03-24T03:41:59.984Z,33.10
2019-03-24T03:44:28.861Z,30.40
2019-03-24T03:46:57.761Z,30.20
2019-03-24T03:49:26.310Z,33.53
2019-03-24T03:51:55.125Z,32.57
2019-03-24T03:54:23.982Z,33.63
2019-03-24T03:56:52.472Z,32.77
2019-03-24T03:59:21.366Z,32.00
2019-03-24T04:01:50.182Z,34.53
2019-03-24T04:04:18.715Z,33.10
2019-03-24T04:06:47.602Z,33.70
2019-03-24T04:09:16.096Z,36.57
2019-03-24T04:11:45.075Z,36.53
2019-03-24T04:14:13.998Z,36.60
2019-03-24T04:16:42.841Z,35.83
2019-03-24T04:19:11.617Z,35.20
2019-03-24T04:21:40.497Z,35.57
2019-03-24T04:24:09.373Z,33.63
2019-03-24T04:26:38.258Z,34.63
2019-03-24T04:29:07.185Z,33.47
2019-03-24T04:31:36.020Z,34.77
2019-03-24T04:34:04.945Z,34.10
2019-03-24T04:36:33.811Z,35.47
2019-03-24T04:39:02.739Z,35.20
2019-03-24T04:41:31.611Z,33.03
2019-03-24T04:44:00.472Z,34.53
2019-03-24T04:46:29.320Z,35.10
2019-03-24T04:48:59.142Z,33.33
2019-03-24T04:51:27.648Z,33.17
2019-03-24T04:53:56.442Z,37.37
2019-03-24T04:56:25.297Z,34.80
2019-03-24T04:58:53.816Z,35.87
2019-03-24T05:01:22.616Z,35.40
2019-03-24T05:03:51.375Z,35.87
2019-03-24T05:06:20.595Z,35.03
2019-03-24T05:08:50.295Z,36.27
2019-03-24T05:11:19.102Z,36.73
2019-03-24T05:13:47.654Z,38.60
2019-03-24T05:16:16.449Z,36.93
2019-03-24T05:18:45.223Z,36.23
2019-03-24T05:21:14.104Z,36.30
2019-03-24T05:23:42.910Z,35.53
2019-03-24T05:26:13.326Z,33.00
2019-03-24T05:28:41.912Z,33.50
2019-03-24T05:31:10.687Z,32.73
2019-03-24T05:33:39.533Z,30.23
2019-03-24T05:36:08.323Z,33.67
2019-03-24T05:38:45.968Z,35.13
2019-03-24T05:41:14.743Z,32.70
2019-03-24T05:43:43.527Z,32.37
2019-03-24T05:46:12.387Z,36.00
2019-03-24T05:48:42.301Z,33.50
2019-03-24T05:51:12.076Z,32.70
2019-03-24T05:53:40.925Z,32.67
2019-03-24T05:56:09.446Z,33.03
2019-03-24T05:58:38.171Z,33.33
2019-03-24T06:01:06.712Z,33.27
2019-03-24T06:03:35.474Z,32.47
2019-03-24T06:06:04.435Z,34.30
2019-03-24T06:08:33.224Z,32.50
2019-03-24T06:11:02.024Z,36.77
2019-03-24T06:13:30.835Z,37.40
2019-03-24T06:15:59.356Z,33.90
2019-03-24T06:18:28.330Z,32.93
2019-03-24T06:20:57.137Z,29.10
2019-03-24T06:23:25.904Z,26.53
2019-03-24T06:25:56.488Z,31.50
2019-03-24T06:28:25.338Z,31.97
2019-03-24T06:30:54.206Z,28.30
2019-03-24T06:33:22.957Z,31.97
2019-03-24T06:35:55.171Z,38.13
2019-03-24T06:38:26.882Z,35.77
2019-03-24T06:40:55.767Z,36.87
2019-03-24T06:43:24.690Z,34.50
2019-03-24T06:45:54.860Z,32.00
2019-03-24T06:48:27.616Z,30.47
2019-03-24T06:54:09.623Z,29.33
2019-03-24T06:59:43.362Z,25.60
2019-03-24T07:02:15.215Z,28.77
2019-03-24T07:04:44.095Z,30.60
2019-03-24T07:07:14.485Z,31.30
2019-03-24T07:10:01.883Z,32.47
2019-03-24T07:12:48.911Z,31.00
2019-03-24T07:15:32.976Z,30.73
2019-03-24T07:18:19.326Z,30.83
2019-03-24T07:20:50.139Z,33.43
2019-03-24T07:23:24.875Z,35.70
2019-03-24T07:26:43.214Z,36.83
2019-03-24T07:33:01.527Z,38.40
2019-03-24T07:35:43.301Z,38.97
2019-03-24T07:39:07.136Z,40.93
2019-03-24T07:41:42.137Z,41.70
2019-03-24T07:44:31.859Z,42.03
2019-03-24T07:47:06.350Z,43.03
2019-03-24T07:49:35.475Z,43.97
2019-03-24T07:52:26.055Z,42.83
2019-03-24T07:57:44.232Z,43.50
2019-03-24T08:00:13.518Z,44.77
2019-03-24T08:02:50.998Z,45.50
2019-03-24T08:05:16.307Z,45.77
2019-03-24T08:07:45.187Z,47.13
2019-03-24T08:10:15.383Z,47.63
2019-03-24T08:12:44.251Z,47.50
2019-03-24T08:15:13.146Z,51.17
2019-03-24T08:17:41.912Z,49.53
2019-03-24T08:20:12.316Z,52.60
2019-03-24T08:22:40.938Z,50.03
2019-03-24T08:25:09.960Z,48.80
2019-03-24T08:27:38.756Z,48.97
2019-03-24T08:30:08.164Z,49.27
2019-03-24T08:32:37.154Z,48.60
2019-03-24T08:35:08.906Z,48.73
2019-03-24T08:37:37.833Z,52.70
2019-03-24T08:40:08.027Z,49.20
2019-03-24T08:42:36.855Z,50.43
2019-03-24T08:45:06.419Z,51.53
2019-03-24T08:47:34.876Z,52.47
2019-03-24T08:50:04.052Z,51.43
2019-03-24T08:52:32.583Z,51.70
2019-03-24T08:55:01.344Z,49.87
2019-03-24T08:57:32.334Z,51.53
2019-03-24T09:00:00.546Z,50.00
2019-03-24T09:02:29.344Z,52.77
2019-03-24T09:04:58.215Z,52.03
2019-03-24T09:07:27.061Z,51.07
2019-03-24T09:09:55.823Z,53.43
2019-03-24T09:12:24.691Z,53.90
2019-03-24T09:14:53.572Z,53.50
2019-03-24T09:17:22.105Z,51.13
2019-03-24T09:19:50.963Z,51.23
2019-03-24T09:22:19.513Z,55.10
2019-03-24T09:24:48.290Z,51.03
2019-03-24T09:27:17.227Z,52.43
2019-03-24T09:29:45.991Z,53.83
2019-03-24T09:32:14.851Z,51.03
2019-03-24T09:34:43.698Z,54.37
2019-03-24T09:37:12.522Z,53.97
2019-03-24T09:39:41.312Z,52.43
2019-03-24T09:42:10.118Z,51.70
2019-03-24T09:44:38.971Z,50.60
2019-03-24T09:47:07.752Z,53.95
2019-03-24T09:49:36.597Z,54.87
2019-03-24T09:52:05.133Z,50.83
2019-03-24T09:54:33.918Z,51.73
2019-03-24T09:57:02.505Z,53.50
2019-03-24T09:59:31.816Z,51.43
2019-03-24T10:02:00.661Z,50.00
2019-03-24T10:04:29.575Z,51.93
2019-03-24T10:06:58.350Z,51.43
2019-03-24T10:09:27.216Z,50.17
2019-03-24T10:11:56.115Z,49.00
2019-03-24T10:14:24.900Z,47.93
2019-03-24T10:16:55.624Z,46.87
2019-03-24T10:19:24.205Z,48.10
2019-03-24T10:21:52.747Z,47.50
2019-03-24T10:24:21.542Z,42.93
2019-03-24T10:26:50.425Z,46.68
2019-03-24T10:29:19.214Z,45.30
2019-03-24T10:31:48.064Z,46.80
2019-03-24T10:34:16.889Z,47.60
2019-03-24T10:36:45.370Z,44.00
2019-03-24T10:39:13.842Z,44.30
2019-03-24T10:41:42.654Z,46.03
2019-03-24T10:44:11.397Z,47.15
2019-03-24T10:46:40.201Z,45.25
2019-03-24T10:49:09.073Z,45.80
2019-03-24T10:51:37.921Z,45.28
2019-03-24T10:54:06.708Z,43.95
2019-03-24T10:56:35.207Z,46.70
2019-03-24T10:59:03.764Z,46.83
2019-03-24T11:01:32.537Z,45.67
2019-03-24T11:04:01.366Z,48.98
2019-03-24T11:06:30.225Z,46.18
2019-03-24T11:08:59.026Z,44.67
2019-03-24T11:11:27.982Z,46.95
2019-03-24T11:13:56.545Z,46.25
2019-03-24T11:16:25.186Z,46.45
2019-03-24T11:18:54.188Z,45.67
2019-03-24T11:21:22.965Z,44.73
2019-03-24T11:23:51.850Z,46.88
2019-03-24T11:26:20.729Z,46.98
2019-03-24T11:28:49.216Z,47.27
2019-03-24T11:31:17.702Z,48.38
2019-03-24T11:33:49.734Z,48.20
2019-03-24T11:36:33.114Z,46.70
2019-03-24T11:39:09.951Z,43.75
2019-03-24T11:44:37.766Z,42.95
2019-03-24T11:47:06.640Z,42.98
2019-03-24T11:49:49.066Z,42.43
2019-03-24T11:52:16.318Z,43.55
2019-03-24T11:54:45.112Z,44.55
2019-03-24T11:57:13.983Z,44.80
2019-03-24T11:59:42.866Z,44.70
2019-03-24T12:02:19.354Z,46.48
2019-03-24T12:05:00.891Z,46.83
2019-03-24T12:07:33.669Z,44.88
2019-03-24T12:10:02.315Z,44.05
2019-03-24T12:12:30.754Z,42.90
2019-03-24T12:14:59.455Z,44.85
2019-03-24T12:17:27.898Z,43.58
2019-03-24T12:19:57.271Z,45.95
2019-03-24T12:22:25.807Z,45.88
2019-03-24T12:24:54.537Z,44.25
2019-03-24T12:27:23.239Z,42.55
2019-03-24T12:29:51.938Z,43.00
2019-03-24T12:32:20.670Z,42.58
2019-03-24T12:34:49.363Z,44.18
2019-03-24T12:37:18.067Z,42.00
2019-03-24T12:39:46.792Z,42.58
2019-03-24T12:42:15.493Z,42.80
2019-03-24T12:44:44.198Z,42.62
2019-03-24T12:47:12.661Z,43.95
2019-03-24T12:49:41.360Z,44.98
2019-03-24T12:52:10.051Z,44.48
2019-03-24T12:54:38.514Z,43.90
2019-03-24T12:57:07.217Z,44.98
2019-03-24T12:59:35.923Z,45.40
2019-03-24T13:02:04.639Z,44.88
2019-03-24T13:04:33.411Z,44.38
2019-03-24T13:07:02.111Z,42.78
2019-03-24T13:09:30.557Z,45.55
2019-03-24T13:11:59.250Z,43.38
2019-03-24T13:14:30.582Z,46.68
2019-03-24T13:16:58.394Z,44.77
2019-03-24T13:19:27.089Z,43.78
2019-03-24T13:21:55.539Z,45.35
2019-03-24T13:24:24.073Z,45.58
2019-03-24T13:26:52.759Z,45.03
2019-03-24T13:29:21.450Z,45.98
2019-03-24T13:31:50.177Z,47.17
2019-03-24T13:34:18.866Z,46.73
2019-03-24T13:36:47.560Z,45.40
2019-03-24T13:39:16.012Z,49.43
2019-03-24T13:41:44.707Z,47.17
2019-03-24T13:44:13.408Z,46.65
2019-03-24T13:46:42.147Z,48.07
2019-03-24T13:49:10.640Z,48.28
2019-03-24T13:51:39.075Z,47.70
2019-03-24T13:54:07.523Z,47.10
2019-03-24T13:56:36.399Z,48.33
2019-03-24T13:59:04.963Z,50.33
2019-03-24T14:01:33.753Z,49.10
2019-03-24T14:04:02.435Z,47.90
2019-03-24T14:06:31.347Z,47.90
2019-03-24T14:09:00.055Z,47.80
2019-03-24T14:11:28.490Z,47.77
2019-03-24T14:13:57.179Z,48.73
2019-03-24T14:16:25.902Z,49.50
2019-03-24T14:18:54.600Z,47.63
2019-03-24T14:21:23.304Z,47.77
2019-03-24T14:23:52.040Z,46.07
2019-03-24T14:26:20.913Z,48.20
2019-03-24T14:28:49.616Z,45.57
2019-03-24T14:31:18.332Z,46.57
2019-03-24T14:33:47.032Z,45.83
2019-03-24T14:36:15.731Z,46.50
2019-03-24T14:38:44.456Z,48.50
2019-03-24T14:41:13.150Z,49.63
2019-03-24T14:43:41.858Z,48.03
2019-03-24T14:46:10.384Z,49.10
2019-03-24T14:48:39.087Z,47.47
2019-03-24T14:51:07.532Z,48.07
2019-03-24T14:53:36.269Z,48.53
2019-03-24T14:56:05.030Z,46.73
2019-03-24T14:58:33.735Z,47.97
2019-03-24T15:01:02.464Z,46.43
2019-03-24T15:03:31.160Z,47.30
2019-03-24T15:05:59.862Z,48.33
2019-03-24T15:08:28.404Z,47.13
2019-03-24T15:14:08.480Z,46.40
2019-03-24T15:25:53.019Z,45.17
2019-03-24T15:28:21.475Z,46.50
2019-03-24T15:30:50.164Z,46.70
2019-03-24T15:33:18.859Z,45.70
2019-03-24T15:35:47.606Z,45.77
2019-03-24T15:55:30.398Z,46.43
2019-03-24T15:58:13.982Z,43.10
2019-03-24T16:00:44.412Z,43.37
2019-03-24T16:03:13.356Z,45.33
2019-03-24T16:05:42.229Z,45.63
2019-03-24T16:08:13.436Z,43.10
2019-03-24T16:10:42.186Z,45.47
2019-03-24T16:19:00.664Z,44.57
2019-03-24T16:26:57.531Z,46.80
2019-03-24T16:29:30.754Z,44.60
2019-03-24T16:32:34.024Z,43.93
2019-03-24T17:30:40.784Z,43.03
2019-03-24T21:34:29.225Z,39.10
2019-03-24T21:37:41.501Z,38.00
2019-03-24T22:05:39.193Z,39.93
2019-03-24T22:08:23.655Z,42.73
2019-03-24T22:14:01.380Z,39.43
2019-03-24T22:22:41.451Z,38.77
2019-03-24T22:25:21.933Z,39.43
2019-03-24T22:28:33.849Z,39.97
2019-03-24T22:31:12.715Z,38.27
2019-03-24T22:33:27.313Z,38.50
2019-03-24T22:42:25.161Z,35.60
2019-03-24T22:44:53.862Z,34.93
2019-03-24T22:47:17.622Z,32.83
2019-03-24T22:49:53.747Z,34.77
2019-03-24T22:52:27.059Z,31.53
2019-03-24T22:55:01.254Z,31.97
2019-03-24T22:57:32.784Z,31.30
2019-03-24T23:00:01.911Z,32.53
2019-03-24T23:02:30.728Z,29.90
2019-03-24T23:04:59.764Z,28.77
2019-03-24T23:07:33.009Z,29.20
2019-03-24T23:10:03.753Z,26.00
2019-03-24T23:12:42.047Z,24.43
2019-03-24T23:15:11.404Z,22.83
2019-03-24T23:17:44.120Z,23.53
2019-03-24T23:20:20.066Z,22.30
2019-03-24T23:22:58.301Z,22.10
2019-03-24T23:25:31.657Z,22.47
2019-03-24T23:28:01.949Z,22.47
2019-03-24T23:30:32.925Z,21.10
2019-03-24T23:33:03.338Z,21.70
2019-03-24T23:35:47.053Z,21.83
2019-03-24T23:38:27.730Z,21.40
2019-03-24T23:40:58.496Z,21.97
2019-03-24T23:43:28.019Z,20.63
2019-03-24T23:45:56.921Z,21.83
2019-03-24T23:48:25.918Z,22.83
2019-03-24T23:50:55.088Z,23.03
2019-03-24T23:53:24.091Z,22.27
2019-03-24T23:55:53.139Z,22.07
2019-03-24T23:58:22.790Z,22.93
